Time;durP1;ratioP1;P1;durP2;ratioP2;P2;SDS_P1;SDS_P2;PMS_P1;PMS_P2;Temp;Humidity;BMP_temperature;BMP_pressure;BME280_temperature;BME280_humidity;BME280_pressure;Samples;Min_cycle;Max_cycle;Signal;HPM_P1;HPM_P2
2023/12/27 00:00:17;;;;;;;12.00;7.57;;;;;20.60;101022.00;;;;2072645;28;20254;-55
2023/12/27 00:01:17;;;;;;;11.40;7.27;;;;;20.60;101019.00;;;;2078746;28;20750;-55
2023/12/27 00:02:18;;;;;;;9.90;6.97;;;;;20.60;101021.00;;;;2066865;28;20214;-58
2023/12/27 00:03:18;;;;;;;13.57;7.23;;;;;20.60;101021.00;;;;2078403;28;20226;-56
2023/12/27 00:04:19;;;;;;;10.60;6.57;;;;;20.60;101024.00;;;;2078740;28;20217;-55
2023/12/27 00:05:19;;;;;;;9.57;6.50;;;;;20.60;101021.00;;;;2074628;28;20241;-55
2023/12/27 00:06:20;;;;;;;10.10;6.67;;;;;20.50;101014.00;;;;2070661;28;20460;-55
2023/12/27 00:07:20;;;;;;;12.20;6.80;;;;;20.50;101018.00;;;;2061413;28;20237;-55
2023/12/27 00:08:20;;;;;;;7.67;5.30;;;;;20.50;101016.00;;;;2074131;28;20226;-55
2023/12/27 00:09:21;;;;;;;9.20;6.33;;;;;20.50;101009.00;;;;2078759;28;20216;-54
2023/12/27 00:10:21;;;;;;;9.40;6.30;;;;;20.60;101006.00;;;;2071141;28;20210;-54
2023/12/27 00:11:22;;;;;;;11.10;6.80;;;;;20.50;101007.00;;;;2073553;28;20206;-58
2023/12/27 00:12:22;;;;;;;9.93;6.00;;;;;20.50;101001.00;;;;2067038;28;20225;-55
2023/12/27 00:13:22;;;;;;;9.97;6.03;;;;;20.50;101008.00;;;;2074580;28;20210;-55
2023/12/27 00:14:23;;;;;;;8.97;6.23;;;;;20.50;101007.00;;;;2077886;28;20836;-55
2023/12/27 00:15:23;;;;;;;7.80;5.57;;;;;20.50;101007.00;;;;2073983;28;20242;-54
2023/12/27 00:16:24;;;;;;;10.00;5.90;;;;;20.50;101007.00;;;;2065651;28;20621;-55
2023/12/27 00:17:24;;;;;;;8.50;5.20;;;;;20.50;101001.00;;;;2074636;28;20206;-56
2023/12/27 00:18:24;;;;;;;9.83;5.10;;;;;20.50;101007.00;;;;2078362;28;20205;-55
2023/12/27 00:19:24;;;;;;;9.73;4.93;;;;;20.50;101004.00;;;;2076555;28;20226;-55
2023/12/27 00:20:25;;;;;;;8.60;5.53;;;;;20.50;101006.00;;;;2077312;28;20228;-55
2023/12/27 00:21:25;;;;;;;7.70;5.17;;;;;20.50;101003.00;;;;2068638;28;20210;-55
2023/12/27 00:22:25;;;;;;;8.20;4.73;;;;;20.50;101012.00;;;;2074981;28;20205;-55
2023/12/27 00:23:26;;;;;;;9.43;5.40;;;;;20.50;100902.00;;;;2077607;28;20292;-56
2023/12/27 00:24:26;;;;;;;10.63;5.10;;;;;20.50;101021.00;;;;2071601;28;20218;-55
2023/12/27 00:25:27;;;;;;;7.17;5.57;;;;;20.40;101020.00;;;;2074585;28;20204;-55
2023/12/27 00:26:27;;;;;;;8.83;5.30;;;;;20.50;101014.00;;;;2065181;28;20547;-55
2023/12/27 00:27:27;;;;;;;7.63;5.63;;;;;20.50;101018.00;;;;2074845;28;20657;-54
2023/12/27 00:28:28;;;;;;;8.07;4.70;;;;;20.50;101015.00;;;;2077999;28;20259;-54
2023/12/27 00:29:29;;;;;;;6.87;4.47;;;;;20.40;101000.00;;;;2071821;28;20207;-55
2023/12/27 00:30:29;;;;;;;8.43;5.13;;;;;20.40;101014.00;;;;2073104;28;20202;-54
2023/12/27 00:31:29;;;;;;;8.00;4.90;;;;;20.40;101014.00;;;;2061634;28;21055;-54
2023/12/27 00:32:30;;;;;;;8.60;4.80;;;;;20.40;101012.00;;;;2074922;28;20286;-55
2023/12/27 00:33:30;;;;;;;7.10;4.40;;;;;20.40;101010.00;;;;2074563;28;20214;-54
2023/12/27 00:34:30;;;;;;;8.63;4.70;;;;;20.40;101002.00;;;;2075164;28;20603;-55
2023/12/27 00:35:31;;;;;;;6.13;4.30;;;;;20.40;101008.00;;;;2078085;28;20923;-55
2023/12/27 00:36:31;;;;;;;6.93;4.03;;;;;20.40;101005.00;;;;2067564;28;20712;-55
2023/12/27 00:37:32;;;;;;;6.50;4.00;;;;;20.40;101007.00;;;;2072819;28;20597;-55
2023/12/27 00:38:32;;;;;;;7.77;4.10;;;;;20.40;101008.00;;;;2070585;28;21013;-55
2023/12/27 00:39:32;;;;;;;5.30;3.53;;;;;20.40;101003.00;;;;2074399;28;20225;-54
2023/12/27 00:40:33;;;;;;;6.27;4.10;;;;;20.40;101002.00;;;;2075310;28;20206;-54
2023/12/27 00:41:33;;;;;;;7.33;3.87;;;;;20.40;101004.00;;;;2068747;28;20209;-55
2023/12/27 00:42:33;;;;;;;6.40;3.87;;;;;20.40;101000.00;;;;2077848;28;20245;-54
2023/12/27 00:43:34;;;;;;;7.10;3.30;;;;;20.40;100997.00;;;;2075100;28;20206;-55
2023/12/27 00:44:34;;;;;;;8.50;3.87;;;;;20.40;101000.00;;;;2077739;28;20216;-54
2023/12/27 00:45:34;;;;;;;5.50;3.60;;;;;20.40;100993.00;;;;2072382;28;20214;-54
2023/12/27 00:46:35;;;;;;;9.80;4.60;;;;;20.40;100997.00;;;;2065565;28;20275;-54
2023/12/27 00:47:36;;;;;;;6.53;4.25;;;;;20.40;101000.00;;;;2075566;28;20272;-55
2023/12/27 00:48:36;;;;;;;8.43;4.03;;;;;20.40;101001.00;;;;2071888;28;20771;-55
2023/12/27 00:49:36;;;;;;;5.90;3.70;;;;;20.30;101000.00;;;;2070814;28;20706;-54
2023/12/27 00:50:37;;;;;;;5.47;3.20;;;;;20.30;100994.00;;;;2074412;28;20236;-55
2023/12/27 00:51:37;;;;;;;10.67;3.73;;;;;20.30;100986.00;;;;2062867;28;20210;-55
2023/12/27 00:52:37;;;;;;;5.97;3.93;;;;;20.30;100990.00;;;;2073825;28;20213;-55
2023/12/27 00:53:38;;;;;;;7.10;3.60;;;;;20.30;101000.00;;;;2077545;28;20251;-56
2023/12/27 00:54:38;;;;;;;5.90;3.70;;;;;20.30;100988.00;;;;2074394;28;20222;-55
2023/12/27 00:55:38;;;;;;;8.50;4.23;;;;;20.30;100989.00;;;;2075732;28;20244;-55
2023/12/27 00:56:39;;;;;;;4.80;3.63;;;;;20.30;100993.00;;;;2066892;28;20225;-54
2023/12/27 00:57:40;;;;;;;6.33;3.20;;;;;20.30;101002.00;;;;2077662;28;20396;-53
2023/12/27 00:58:40;;;;;;;7.57;3.70;;;;;20.30;100986.00;;;;2080546;28;20690;-54
2023/12/27 00:59:40;;;;;;;5.23;3.20;;;;;20.30;100978.00;;;;2078994;28;20217;-55
2023/12/27 01:00:41;;;;;;;5.00;3.20;;;;;20.30;100983.00;;;;2079243;28;20271;-54
2023/12/27 01:01:43;;;;;;;6.23;3.27;;;;;20.30;100991.00;;;;2058541;28;20215;-55
2023/12/27 01:02:43;;;;;;;4.78;3.55;;;;;20.30;100986.00;;;;2079368;28;20217;-54
2023/12/27 01:03:44;;;;;;;7.67;3.60;;;;;20.30;100993.00;;;;2081536;28;20218;-56
2023/12/27 01:04:44;;;;;;;5.70;3.03;;;;;20.30;100987.00;;;;2081012;28;20218;-53
2023/12/27 01:05:44;;;;;;;7.40;3.77;;;;;20.30;100987.00;;;;2074782;28;20663;-54
2023/12/27 01:06:45;;;;;;;5.00;3.00;;;;;20.30;100993.00;;;;2068750;28;20226;-54
2023/12/27 01:07:45;;;;;;;5.50;3.10;;;;;20.30;100992.00;;;;2075955;28;20236;-55
2023/12/27 01:08:45;;;;;;;6.00;3.40;;;;;20.30;100978.00;;;;2079737;28;20256;-54
2023/12/27 01:09:46;;;;;;;8.33;3.23;;;;;20.00;100982.00;;;;2080536;28;20719;-53
2023/12/27 01:10:46;;;;;;;6.93;3.63;;;;;20.20;100985.00;;;;2079663;28;20217;-54
2023/12/27 01:11:46;;;;;;;7.73;3.10;;;;;20.30;100989.00;;;;2071950;28;21060;-53
2023/12/27 01:12:48;;;;;;;5.10;2.90;;;;;20.30;100989.00;;;;2075394;28;20222;-53
2023/12/27 01:13:49;;;;;;;5.50;2.92;;;;;20.30;100983.00;;;;2079943;28;20213;-53
2023/12/27 01:14:49;;;;;;;4.07;2.90;;;;;20.30;100980.00;;;;2077439;28;20501;-59
2023/12/27 01:15:49;;;;;;;5.97;3.43;;;;;20.20;100981.00;;;;2080026;28;20213;-55
2023/12/27 01:16:50;;;;;;;6.17;3.17;;;;;20.20;100981.00;;;;2070958;28;20281;-55
2023/12/27 01:17:50;;;;;;;5.07;2.57;;;;;20.20;100972.00;;;;2072370;28;20776;-56
2023/12/27 01:18:50;;;;;;;8.70;3.77;;;;;20.20;100955.00;;;;2080972;28;20228;-57
2023/12/27 01:19:51;;;;;;;6.07;3.17;;;;;20.20;100972.00;;;;2074832;28;20703;-55
2023/12/27 01:20:51;;;;;;;4.27;2.73;;;;;20.20;100980.00;;;;2080648;28;20209;-53
2023/12/27 01:21:51;;;;;;;8.00;3.20;;;;;20.20;100984.00;;;;2069218;28;20254;-55
2023/12/27 01:22:52;;;;;;;7.90;2.80;;;;;20.20;100985.00;;;;2080914;28;20216;-55
2023/12/27 01:23:52;;;;;;;5.90;3.10;;;;;20.20;100986.00;;;;2080774;28;20236;-54
2023/12/27 01:24:53;;;;;;;4.93;2.80;;;;;20.20;100977.00;;;;2079272;28;20208;-55
2023/12/27 01:25:53;;;;;;;5.80;3.07;;;;;20.20;100981.00;;;;2073884;28;20218;-55
2023/12/27 01:26:53;;;;;;;5.17;3.30;;;;;20.20;100976.00;;;;2069291;28;20221;-54
2023/12/27 01:27:54;;;;;;;4.70;3.03;;;;;20.20;100984.00;;;;2084404;28;20220;-54
2023/12/27 01:28:54;;;;;;;6.30;3.00;;;;;20.20;100978.00;;;;2089575;28;20204;-55
2023/12/27 01:29:54;;;;;;;6.97;3.70;;;;;20.20;100981.00;;;;2088572;28;20299;-55
2023/12/27 01:30:55;;;;;;;5.30;3.03;;;;;20.20;100982.00;;;;2088826;28;20217;-54
2023/12/27 01:31:55;;;;;;;6.53;2.90;;;;;20.20;100979.00;;;;2084600;28;20224;-56
2023/12/27 01:32:55;;;;;;;8.13;3.90;;;;;20.20;100975.00;;;;2089626;28;20239;-55
2023/12/27 01:33:56;;;;;;;4.67;2.33;;;;;20.20;100985.00;;;;2083690;28;20217;-54
2023/12/27 01:34:56;;;;;;;8.00;3.07;;;;;20.20;100987.00;;;;2087326;28;20227;-54
2023/12/27 01:35:56;;;;;;;4.80;2.40;;;;;20.20;100990.00;;;;2085446;28;20217;-54
2023/12/27 01:36:57;;;;;;;7.13;2.80;;;;;20.10;100981.00;;;;2079740;28;20271;-55
2023/12/27 01:37:57;;;;;;;6.63;2.87;;;;;20.10;100996.00;;;;2087498;28;20245;-55
2023/12/27 01:38:57;;;;;;;4.93;2.50;;;;;20.10;100989.00;;;;2080636;28;20287;-55
2023/12/27 01:39:58;;;;;;;5.23;2.47;;;;;20.10;100988.00;;;;2087485;28;20227;-54
2023/12/27 01:40:58;;;;;;;5.33;2.70;;;;;20.10;100765.00;;;;2083006;28;20237;-54
2023/12/27 01:41:59;;;;;;;5.80;2.83;;;;;20.10;100988.00;;;;2078993;28;20338;-54
2023/12/27 01:42:59;;;;;;;5.87;3.03;;;;;20.10;100990.00;;;;2089012;28;20217;-55
2023/12/27 01:43:59;;;;;;;7.40;2.67;;;;;20.10;100993.00;;;;2088609;28;20220;-55
2023/12/27 01:45:00;;;;;;;5.03;3.00;;;;;20.10;100985.00;;;;2087976;28;20209;-55
2023/12/27 01:46:00;;;;;;;4.73;2.43;;;;;20.10;100985.00;;;;2079601;28;20300;-55
2023/12/27 01:47:01;;;;;;;4.40;2.60;;;;;20.10;100985.00;;;;2077548;28;20305;-55
2023/12/27 01:48:01;;;;;;;6.07;2.97;;;;;20.10;100992.00;;;;2081376;28;20229;-54
2023/12/27 01:49:01;;;;;;;4.87;2.37;;;;;20.10;100986.00;;;;2085606;28;20224;-54
2023/12/27 01:50:02;;;;;;;5.40;2.23;;;;;20.10;100987.00;;;;2086604;28;20215;-56
2023/12/27 01:51:02;;;;;;;5.43;2.27;;;;;20.10;100996.00;;;;2088668;28;20213;-54
2023/12/27 01:52:02;;;;;;;5.50;2.63;;;;;20.10;100989.00;;;;2084622;28;20722;-54
2023/12/27 01:53:03;;;;;;;5.13;2.60;;;;;20.10;100999.00;;;;2079669;28;20561;-53
2023/12/27 01:54:03;;;;;;;9.67;2.87;;;;;20.10;100967.00;;;;2088040;28;20225;-53
2023/12/27 01:55:04;;;;;;;5.67;2.57;;;;;20.10;100963.00;;;;2078879;28;20209;-54
2023/12/27 01:56:06;;;;;;;7.32;2.70;;;;;20.10;100993.00;;;;2063975;28;20222;-53
2023/12/27 01:57:06;;;;;;;7.00;2.92;;;;;20.10;101026.00;;;;2056421;28;20345;-53
2023/12/27 01:58:08;;;;;;;3.50;2.30;;;;;20.10;100993.00;;;;2077482;28;20757;-52
2023/12/27 01:59:08;;;;;;;5.50;2.60;;;;;20.10;100984.00;;;;2084059;28;20737;-53
2023/12/27 02:00:09;;;;;;;6.07;2.57;;;;;20.10;100993.00;;;;2080991;28;20218;-55
2023/12/27 02:01:09;;;;;;;5.90;2.43;;;;;20.10;100992.00;;;;2088070;28;20225;-53
2023/12/27 02:02:10;;;;;;;5.33;2.63;;;;;20.00;100989.00;;;;2078657;28;20209;-54
2023/12/27 02:03:11;;;;;;;6.00;2.70;;;;;20.10;100992.00;;;;2095015;28;20224;-54
2023/12/27 02:04:11;;;;;;;4.75;2.60;;;;;20.10;100984.00;;;;2088125;28;20209;-56
2023/12/27 02:05:12;;;;;;;4.80;2.20;;;;;20.10;100991.00;;;;2082103;28;20212;-53
2023/12/27 02:06:12;;;;;;;6.10;2.43;;;;;20.00;100879.00;;;;2081687;28;20213;-54
2023/12/27 02:07:12;;;;;;;6.50;2.20;;;;;20.00;100981.00;;;;2069134;28;20205;-53
2023/12/27 02:08:13;;;;;;;7.00;2.60;;;;;20.00;100987.00;;;;2076976;28;20216;-55
2023/12/27 02:09:13;;;;;;;6.60;2.10;;;;;20.00;100987.00;;;;2081405;28;20271;-54
2023/12/27 02:10:13;;;;;;;9.83;2.90;;;;;20.00;100985.00;;;;2075156;28;20205;-55
2023/12/27 02:11:14;;;;;;;5.57;3.07;;;;;20.00;100995.00;;;;2082067;28;20266;-55
2023/12/27 02:12:23;;;;;;;5.30;2.47;;;;;20.00;100988.00;;;;2071581;28;20214;-53
2023/12/27 02:13:24;;;;;;;28.73;3.25;;;;;20.00;100991.00;;;;2082885;28;20217;-53
2023/12/27 02:14:24;;;;;;;8.40;3.97;;;;;20.00;100992.00;;;;2087949;28;20232;-53
2023/12/27 02:15:24;;;;;;;10.47;7.20;;;;;20.00;100998.00;;;;2084693;28;20201;-54
2023/12/27 02:16:25;;;;;;;12.10;9.13;;;;;20.00;100988.00;;;;2075949;28;20224;-55
2023/12/27 02:17:26;;;;;;;17.40;12.10;;;;;20.00;100992.00;;;;2075880;28;20238;-55
2023/12/27 02:18:26;;;;;;;21.40;14.13;;;;;20.00;100990.00;;;;2074507;28;20227;-53
2023/12/27 02:19:26;;;;;;;22.00;15.73;;;;;20.00;100984.00;;;;2078282;28;20932;-54
2023/12/27 02:20:27;;;;;;;25.93;16.50;;;;;20.00;100983.00;;;;2070049;28;20225;-53
2023/12/27 02:21:27;;;;;;;27.00;18.57;;;;;20.00;100989.00;;;;2063594;28;20220;-54
2023/12/27 02:22:27;;;;;;;27.33;19.90;;;;;20.00;100966.00;;;;2062490;28;20230;-56
2023/12/27 02:23:28;;;;;;;30.87;22.30;;;;;20.00;100985.00;;;;2059870;28;20233;-55
2023/12/27 02:24:34;;;;;;;31.97;22.20;;;;;20.00;100971.00;;;;2061715;28;20214;-54
2023/12/27 02:25:34;;;;;;;38.40;23.50;;;;;20.00;100970.00;;;;2060592;28;20685;-55
2023/12/27 02:26:35;;;;;;;31.83;22.33;;;;;20.00;100983.00;;;;2048634;28;20212;-54
2023/12/27 02:27:35;;;;;;;31.17;23.67;;;;;19.90;100995.00;;;;2075193;28;20217;-55
2023/12/27 02:28:35;;;;;;;38.00;24.57;;;;;19.90;100990.00;;;;2075638;28;20223;-55
2023/12/27 02:29:36;;;;;;;36.87;26.00;;;;;19.90;100983.00;;;;2075518;28;20243;-55
2023/12/27 02:30:38;;;;;;;37.28;25.30;;;;;19.90;100874.00;;;;2077782;28;20218;-54
2023/12/27 02:31:38;;;;;;;37.85;26.40;;;;;19.90;100984.00;;;;2065643;28;20237;-55
2023/12/27 02:32:38;;;;;;;36.53;24.97;;;;;19.90;100985.00;;;;2076331;28;20261;-55
2023/12/27 02:33:43;;;;;;;40.60;27.20;;;;;19.90;100977.00;;;;2079348;28;20233;-54
2023/12/27 02:34:44;;;;;;;38.42;26.83;;;;;20.00;100975.00;;;;2076060;28;20221;-54
2023/12/27 02:35:44;;;;;;;38.47;26.57;;;;;19.90;100977.00;;;;2079036;28;20233;-55
2023/12/27 02:36:44;;;;;;;39.50;27.87;;;;;19.90;100982.00;;;;2065779;28;20234;-55
2023/12/27 02:37:45;;;;;;;37.57;26.20;;;;;19.90;100863.00;;;;2081083;28;20221;-55
2023/12/27 02:38:45;;;;;;;38.67;25.80;;;;;19.90;100976.00;;;;2076395;28;21322;-54
2023/12/27 02:39:45;;;;;;;39.70;26.63;;;;;19.90;100960.00;;;;2077124;28;20869;-54
2023/12/27 02:40:46;;;;;;;38.47;26.93;;;;;19.90;100970.00;;;;2078061;28;20981;-53
2023/12/27 02:41:47;;;;;;;36.67;26.20;;;;;19.90;100963.00;;;;2067259;28;20837;-52
2023/12/27 02:42:47;;;;;;;38.43;25.33;;;;;19.90;100965.00;;;;2074067;28;20735;-55
2023/12/27 02:43:48;;;;;;;39.40;26.27;;;;;19.90;100962.00;;;;2072654;28;20524;-53
2023/12/27 02:44:48;;;;;;;37.00;24.70;;;;;19.90;100956.00;;;;2071637;28;20667;-54
2023/12/27 02:45:48;;;;;;;33.97;24.90;;;;;19.90;100959.00;;;;2072154;28;20278;-55
2023/12/27 02:46:49;;;;;;;43.60;25.13;;;;;19.90;100958.00;;;;2066718;28;20221;-55
2023/12/27 02:47:49;;;;;;;37.20;24.23;;;;;19.90;100951.00;;;;2072516;28;20227;-53
2023/12/27 02:48:49;;;;;;;35.07;23.17;;;;;19.90;100960.00;;;;2078923;28;20236;-55
2023/12/27 02:49:50;;;;;;;32.13;22.90;;;;;19.90;100954.00;;;;2072708;28;20238;-55
2023/12/27 02:50:50;;;;;;;31.10;22.43;;;;;19.90;100966.00;;;;2072274;28;20218;-53
2023/12/27 02:51:50;;;;;;;31.80;21.17;;;;;19.90;100973.00;;;;2067512;28;20260;-54
2023/12/27 02:52:51;;;;;;;33.13;21.87;;;;;19.80;100963.00;;;;2076588;28;21532;-55
2023/12/27 02:53:51;;;;;;;32.43;21.03;;;;;19.90;100965.00;;;;2071683;28;20249;-54
2023/12/27 02:54:51;;;;;;;35.00;21.57;;;;;19.90;100963.00;;;;2071978;28;20218;-55
2023/12/27 02:55:52;;;;;;;30.80;20.27;;;;;19.90;100958.00;;;;2076740;28;20654;-60
2023/12/27 02:56:52;;;;;;;34.13;21.00;;;;;19.90;100952.00;;;;2064470;28;20237;-57
2023/12/27 02:57:52;;;;;;;29.93;20.07;;;;;19.90;100956.00;;;;2076928;28;20217;-53
2023/12/27 02:58:53;;;;;;;27.67;19.30;;;;;19.90;100953.00;;;;2079692;28;20205;-55
2023/12/27 02:59:53;;;;;;;26.47;18.60;;;;;19.80;100954.00;;;;2074299;28;20240;-54
2023/12/27 03:00:54;;;;;;;26.40;18.57;;;;;19.80;100949.00;;;;2078032;28;20284;-56
2023/12/27 03:01:54;;;;;;;27.37;18.90;;;;;19.80;100946.00;;;;2063788;28;20253;-54
2023/12/27 03:02:54;;;;;;;26.73;17.43;;;;;19.90;100951.00;;;;2072618;28;20214;-55
2023/12/27 03:03:54;;;;;;;24.07;17.17;;;;;19.90;100940.00;;;;2078108;28;20210;-53
2023/12/27 03:04:55;;;;;;;25.80;17.57;;;;;19.80;100942.00;;;;2079285;28;20214;-53
2023/12/27 03:05:55;;;;;;;26.93;17.90;;;;;19.80;100941.00;;;;2073993;28;20263;-55
2023/12/27 03:06:55;;;;;;;22.90;15.83;;;;;19.80;100931.00;;;;2067481;28;20233;-55
2023/12/27 03:07:56;;;;;;;24.90;16.20;;;;;19.80;100935.00;;;;2072965;28;20246;-55
2023/12/27 03:08:56;;;;;;;21.53;16.20;;;;;19.80;100937.00;;;;2078291;28;20219;-54
2023/12/27 03:09:56;;;;;;;26.43;16.23;;;;;19.80;100935.00;;;;2072693;28;20210;-53
2023/12/27 03:10:57;;;;;;;23.60;15.63;;;;;19.80;100928.00;;;;2077696;28;20241;-54
2023/12/27 03:11:57;;;;;;;23.37;15.67;;;;;19.80;100930.00;;;;2070338;28;20266;-56
2023/12/27 03:12:57;;;;;;;20.40;14.83;;;;;19.80;100923.00;;;;2073333;28;20218;-53
2023/12/27 03:13:58;;;;;;;25.03;15.50;;;;;19.80;100924.00;;;;2078379;28;20225;-53
2023/12/27 03:14:58;;;;;;;20.13;13.47;;;;;19.80;100925.00;;;;2077113;28;20217;-55
2023/12/27 03:16:04;;;;;;;21.70;13.40;;;;;19.80;100926.00;;;;2079172;28;20218;-54
2023/12/27 03:17:04;;;;;;;23.60;13.07;;;;;19.80;100923.00;;;;2070636;28;20240;-55
2023/12/27 03:18:04;;;;;;;21.50;13.30;;;;;19.80;100923.00;;;;2078582;28;20229;-55
2023/12/27 03:19:05;;;;;;;17.90;12.67;;;;;19.80;100923.00;;;;2080700;28;21033;-55
2023/12/27 03:20:06;;;;;;;23.43;13.50;;;;;19.80;100924.00;;;;2077740;28;21255;-55
2023/12/27 03:21:07;;;;;;;23.77;14.10;;;;;19.80;100927.00;;;;2079924;28;20230;-54
2023/12/27 03:22:07;;;;;;;19.23;12.02;;;;;19.80;100920.00;;;;2070921;28;20463;-56
2023/12/27 03:23:08;;;;;;;19.10;12.43;;;;;19.80;100920.00;;;;2074795;28;20225;-55
2023/12/27 03:24:08;;;;;;;18.37;11.63;;;;;19.80;100918.00;;;;2082155;28;20225;-52
2023/12/27 03:25:08;;;;;;;19.20;12.63;;;;;19.80;100912.00;;;;2075671;28;20287;-54
2023/12/27 03:26:09;;;;;;;16.47;10.60;;;;;19.80;100921.00;;;;2089893;28;20216;-55
2023/12/27 03:27:10;;;;;;;20.17;11.57;;;;;19.80;100922.00;;;;2077143;28;20217;-55
2023/12/27 03:28:10;;;;;;;22.25;11.68;;;;;19.80;100916.00;;;;2085104;28;20220;-56
2023/12/27 03:29:10;;;;;;;17.23;11.07;;;;;19.80;100913.00;;;;2080533;28;20253;-53
2023/12/27 03:30:11;;;;;;;18.97;11.07;;;;;19.80;100908.00;;;;2078969;28;20209;-53
2023/12/27 03:31:12;;;;;;;17.13;10.93;;;;;19.70;100917.00;;;;2088078;28;20284;-53
2023/12/27 03:32:12;;;;;;;15.37;10.40;;;;;19.70;100910.00;;;;2070066;28;20221;-53
2023/12/27 03:33:12;;;;;;;16.70;10.00;;;;;19.70;100907.00;;;;2088128;28;20244;-53
2023/12/27 03:34:13;;;;;;;18.90;11.17;;;;;19.70;100907.00;;;;2082459;28;20210;-54
2023/12/27 03:35:13;;;;;;;16.30;10.10;;;;;19.70;100903.00;;;;2087771;28;20209;-55
2023/12/27 03:36:14;;;;;;;16.43;10.20;;;;;19.70;100863.00;;;;2080629;28;20235;-55
2023/12/27 03:37:14;;;;;;;13.43;9.37;;;;;19.70;100899.00;;;;2084911;28;20232;-55
2023/12/27 03:38:15;;;;;;;12.47;9.13;;;;;19.70;100904.00;;;;2080824;28;20233;-54
2023/12/27 03:39:15;;;;;;;18.20;9.33;;;;;19.70;100909.00;;;;2079339;28;20459;-54
2023/12/27 03:40:16;;;;;;;14.43;9.27;;;;;19.70;100899.00;;;;2080192;28;20213;-55
2023/12/27 03:41:16;;;;;;;15.33;9.23;;;;;19.70;100897.00;;;;2078889;28;20221;-55
2023/12/27 03:42:19;;;;;;;11.93;7.77;;;;;19.70;100906.00;;;;2068062;28;20591;-55
2023/12/27 03:43:19;;;;;;;14.05;8.43;;;;;19.70;100899.00;;;;2069724;28;20230;-55
2023/12/27 03:44:19;;;;;;;14.47;8.70;;;;;19.70;100909.00;;;;2076727;28;20583;-54
2023/12/27 03:45:20;;;;;;;13.30;8.70;;;;;19.70;100895.00;;;;2077029;28;20218;-54
2023/12/27 03:46:20;;;;;;;12.30;7.33;;;;;19.70;100907.00;;;;2075053;28;20284;-55
2023/12/27 03:47:20;;;;;;;11.27;7.57;;;;;19.70;100903.00;;;;2066315;28;20858;-55
2023/12/27 03:48:21;;;;;;;11.90;7.83;;;;;19.70;100905.00;;;;2069645;28;20580;-55
2023/12/27 03:49:21;;;;;;;13.77;7.43;;;;;19.70;100945.00;;;;2077431;28;20619;-56
2023/12/27 03:50:21;;;;;;;11.17;7.20;;;;;19.70;100914.00;;;;2074054;28;20682;-53
2023/12/27 03:51:22;;;;;;;11.60;7.60;;;;;19.70;100902.00;;;;2070363;28;20682;-54
2023/12/27 03:52:23;;;;;;;11.47;7.17;;;;;19.70;100899.00;;;;2067461;28;20584;-55
2023/12/27 03:53:24;;;;;;;12.02;6.63;;;;;19.70;100889.00;;;;2075620;28;20237;-52
2023/12/27 03:54:24;;;;;;;12.10;7.70;;;;;19.70;100896.00;;;;2077270;28;20221;-54
2023/12/27 03:55:24;;;;;;;9.83;6.60;;;;;19.70;100892.00;;;;2073625;28;20222;-55
2023/12/27 03:56:25;;;;;;;13.07;7.47;;;;;19.70;100898.00;;;;2067412;28;20292;-57
2023/12/27 03:57:25;;;;;;;13.03;6.90;;;;;19.70;100892.00;;;;2074989;28;20617;-59
2023/12/27 03:58:25;;;;;;;8.80;5.77;;;;;19.70;100891.00;;;;2077119;28;20244;-58
2023/12/27 03:59:26;;;;;;;12.20;6.50;;;;;19.70;100891.00;;;;2076957;28;20212;-53
2023/12/27 04:00:26;;;;;;;10.17;6.70;;;;;19.70;100890.00;;;;2069558;28;20221;-54
2023/12/27 04:01:26;;;;;;;12.20;6.77;;;;;19.60;100878.00;;;;2067363;28;20213;-54
2023/12/27 04:02:27;;;;;;;11.40;6.73;;;;;19.70;100882.00;;;;2074868;28;20763;-56
2023/12/27 04:03:27;;;;;;;11.60;6.57;;;;;19.60;100886.00;;;;2070894;28;20691;-55
2023/12/27 04:04:27;;;;;;;13.37;7.60;;;;;19.70;100895.00;;;;2076917;28;20275;-53
2023/12/27 04:05:28;;;;;;;10.73;6.40;;;;;19.60;100890.00;;;;2076737;28;20216;-53
2023/12/27 04:06:28;;;;;;;10.50;6.37;;;;;19.70;100937.00;;;;2061571;28;20581;-55
2023/12/27 04:07:29;;;;;;;9.40;6.00;;;;;19.70;100892.00;;;;2076923;28;20579;-54
2023/12/27 04:08:29;;;;;;;11.77;6.38;;;;;19.60;100894.00;;;;2076234;28;20716;-55
2023/12/27 04:09:30;;;;;;;9.27;5.37;;;;;19.60;100897.00;;;;2075100;28;20206;-55
2023/12/27 04:10:33;;;;;;;8.60;5.83;;;;;19.70;100890.00;;;;2067191;28;20249;-55
2023/12/27 04:11:34;;;;;;;10.20;5.63;;;;;19.60;100896.00;;;;2062013;28;20248;-55
2023/12/27 04:12:35;;;;;;;9.20;5.47;;;;;19.60;100799.00;;;;2073778;28;25145;-55
2023/12/27 04:13:35;;;;;;;10.43;5.40;;;;;19.60;100890.00;;;;2070608;28;20307;-54
2023/12/27 04:14:35;;;;;;;9.03;5.83;;;;;19.60;100889.00;;;;2076889;28;20872;-54
2023/12/27 04:15:36;;;;;;;9.53;5.10;;;;;19.60;100880.00;;;;2071875;28;20683;-55
2023/12/27 04:16:36;;;;;;;11.40;5.07;;;;;19.60;100887.00;;;;2059587;28;20978;-55
2023/12/27 04:17:36;;;;;;;7.87;5.30;;;;;19.60;100876.00;;;;2068724;28;20594;-54
2023/12/27 04:18:37;;;;;;;7.07;4.50;;;;;19.60;100885.00;;;;2071906;28;20241;-55
2023/12/27 04:19:37;;;;;;;9.40;5.50;;;;;19.60;100880.00;;;;2076461;28;20217;-53
2023/12/27 04:20:37;;;;;;;8.47;4.60;;;;;19.60;100880.00;;;;2071479;28;20205;-53
2023/12/27 04:21:38;;;;;;;9.90;4.70;;;;;19.60;100877.00;;;;2068808;28;20202;-53
2023/12/27 04:22:38;;;;;;;8.80;5.07;;;;;19.60;100883.00;;;;2074218;28;20235;-55
2023/12/27 04:23:39;;;;;;;7.50;4.70;;;;;19.60;100881.00;;;;2077990;28;20454;-54
2023/12/27 04:24:39;;;;;;;8.20;4.40;;;;;19.60;100880.00;;;;2075840;28;20209;-55
2023/12/27 04:25:39;;;;;;;6.40;4.80;;;;;19.60;100878.00;;;;2073570;28;20202;-53
2023/12/27 04:26:40;;;;;;;9.30;4.63;;;;;19.60;100879.00;;;;2068742;28;20202;-54
2023/12/27 04:27:40;;;;;;;7.13;3.80;;;;;19.60;100873.00;;;;2073625;28;20205;-55
2023/12/27 04:28:40;;;;;;;7.87;4.33;;;;;19.60;100877.00;;;;2078276;28;20210;-54
2023/12/27 04:29:41;;;;;;;8.23;4.43;;;;;19.60;100885.00;;;;2073618;28;20280;-55
2023/12/27 04:30:41;;;;;;;7.83;4.67;;;;;19.60;100875.00;;;;2072300;28;20245;-55
2023/12/27 04:31:41;;;;;;;9.43;4.83;;;;;19.60;100880.00;;;;2067163;28;20214;-54
2023/12/27 04:32:42;;;;;;;8.47;4.73;;;;;19.60;100868.00;;;;2072525;28;20217;-52
2023/12/27 04:33:42;;;;;;;7.33;3.70;;;;;19.60;100872.00;;;;2078536;28;20237;-55
2023/12/27 04:34:42;;;;;;;7.93;4.40;;;;;19.60;100873.00;;;;2074600;28;20209;-55
2023/12/27 04:35:43;;;;;;;9.40;4.80;;;;;19.60;100871.00;;;;2078314;28;20209;-55
2023/12/27 04:36:43;;;;;;;8.47;4.40;;;;;19.60;100880.00;;;;2067406;28;20360;-56
2023/12/27 04:37:44;;;;;;;9.00;4.53;;;;;19.60;100873.00;;;;2079417;28;20203;-55
2023/12/27 04:38:44;;;;;;;7.23;4.27;;;;;19.50;100877.00;;;;2076547;28;20212;-54
2023/12/27 04:39:44;;;;;;;7.80;4.10;;;;;19.50;100866.00;;;;2078501;28;20205;-55
2023/12/27 04:40:46;;;;;;;7.93;4.20;;;;;19.50;100872.00;;;;2077068;28;20608;-54
2023/12/27 04:41:46;;;;;;;7.75;4.85;;;;;19.60;100869.00;;;;2064639;28;20231;-53
2023/12/27 04:42:46;;;;;;;5.03;3.60;;;;;19.60;100876.00;;;;2074626;28;20214;-54
2023/12/27 04:43:47;;;;;;;8.20;3.77;;;;;19.60;100866.00;;;;2069794;28;20646;-53
2023/12/27 04:44:47;;;;;;;5.30;3.63;;;;;19.60;100862.00;;;;2073639;28;21112;-53
2023/12/27 04:45:48;;;;;;;6.93;3.90;;;;;19.50;100858.00;;;;2076972;28;20992;-54
2023/12/27 04:46:49;;;;;;;8.05;4.00;;;;;19.50;100852.00;;;;2068686;28;20217;-54
2023/12/27 04:47:49;;;;;;;9.10;4.17;;;;;19.50;100848.00;;;;2078294;28;20292;-54
2023/12/27 04:48:49;;;;;;;7.07;3.73;;;;;19.50;100843.00;;;;2076897;28;20225;-55
2023/12/27 04:49:50;;;;;;;8.50;4.00;;;;;19.50;100836.00;;;;2077128;28;20217;-55
2023/12/27 04:50:50;;;;;;;5.70;4.00;;;;;19.50;100831.00;;;;2073946;28;20221;-55
2023/12/27 04:51:51;;;;;;;9.97;4.67;;;;;19.60;100833.00;;;;2064922;28;20210;-54
2023/12/27 04:52:51;;;;;;;6.13;3.47;;;;;19.50;100831.00;;;;2073918;28;20263;-55
2023/12/27 04:53:52;;;;;;;10.23;3.50;;;;;19.50;100831.00;;;;2076925;28;20241;-55
2023/12/27 04:54:52;;;;;;;8.93;4.17;;;;;19.50;100836.00;;;;2078020;28;20225;-53
2023/12/27 04:55:53;;;;;;;9.60;3.50;;;;;19.60;100843.00;;;;2076169;28;20225;-53